This is the latest recevied weather packets stored in our database for station/object OE3FJB-25. If no packets are shown the sender has not sent any weather packets the latest 1 day(s).
| Time | Temp. | Humidity | Pressure | Rain* | Wind** | Luminosity | Snow |
|---|---|---|---|---|---|---|---|
| 1778082497 | 20.56° C | 59% | 1008.6 hPa | - | - | - | - |
| 1778080701 | 21.11° C | 55% | 1008.8 hPa | - | - | - | - |
| 1778079504 | 21.67° C | 60% | 1009 hPa | - | - | - | - |
| 1778077706 | 21.11° C | 69% | 1009.2 hPa | - | - | - | - |
| 1778075910 | 22.22° C | 50% | 1009.3 hPa | - | - | - | - |
| 1778074713 | 22.22° C | 50% | 1009.5 hPa | - | - | - | - |
| 1778072317 | 23.33° C | 51% | 1009.7 hPa | - | - | - | - |
| 1778071718 | 22.22° C | 58% | 1009.9 hPa | - | - | - | - |
| 1778070521 | 22.78° C | 59% | 1010.2 hPa | - | - | - | - |
| 1778068723 | 22.78° C | 67% | 1010.5 hPa | - | - | - | - |
| 1778067526 | 21.11° C | 89% | 1010.7 hPa | - | - | - | - |
| 1778064533 | 21.11° C | 92% | 1011.3 hPa | - | - | - | - |
| 1778062737 | 19.44° C | 99% | 1011.5 hPa | - | - | - | - |
| 1778061540 | 20° C | 94% | 1011.6 hPa | - | - | - | - |
| 1778060941 | 21.11° C | 88% | 1011.7 hPa | - | - | - | - |
| 1778059744 | 19.44° C | 97% | 1011.7 hPa | - | - | - | - |
| 1778058547 | 20° C | 99% | 1011.8 hPa | - | - | - | - |
| 1778057946 | 20° C | 99% | 1012 hPa | - | - | - | - |
| 1778056749 | 19.44° C | 99% | 1011.9 hPa | - | - | - | - |
| 1778056150 | 18.89° C | 99% | 1012 hPa | - | - | - | - |
| 1778054953 | 17.22° C | 99% | 1012.1 hPa | - | - | - | - |
| 1778054354 | 17.22° C | 99% | 1012.1 hPa | - | - | - | - |
| 1778053157 | 16.67° C | 99% | 1012 hPa | - | - | - | - |
| 1778052558 | 16.11° C | 99% | 1012 hPa | - | - | - | - |
| 1778051960 | 16.11° C | 99% | 1012.1 hPa | - | - | - | - |
* Rain since midnight (hover to see other rain measurements)
** Current wind speed in m/s (hover to see current wind gust speed)